createdAt,value
2024-02-24T00:00:10.450Z,166.75
2024-02-24T00:01:10.499Z,167.09
2024-02-24T00:02:10.563Z,168.32
2024-02-24T00:03:10.550Z,168.71
2024-02-24T00:04:10.603Z,168.47
2024-02-24T00:05:10.638Z,168.74
2024-02-24T00:06:10.614Z,170.02
2024-02-24T00:07:10.673Z,168.49
2024-02-24T00:08:10.734Z,168.09
2024-02-24T00:09:10.755Z,169.19
2024-02-24T00:10:10.798Z,166.65
2024-02-24T00:11:10.902Z,167.81
2024-02-24T00:12:10.916Z,167.21
2024-02-24T00:13:10.924Z,169.91
2024-02-24T00:14:10.959Z,169.10
2024-02-24T00:15:10.974Z,169.36
2024-02-24T00:16:11.042Z,168.52
2024-02-24T00:17:11.105Z,168.04
2024-02-24T00:18:11.128Z,169.66
2024-02-24T00:19:11.198Z,168.23
2024-02-24T00:20:11.266Z,170.82
2024-02-24T00:21:11.219Z,168.71
2024-02-24T00:22:11.282Z,169.53
2024-02-24T00:23:11.381Z,167.91
2024-02-24T00:24:11.360Z,169.63
2024-02-24T00:25:11.397Z,167.48
2024-02-24T00:26:11.447Z,168.05
2024-02-24T00:27:11.484Z,168.27
2024-02-24T00:28:11.530Z,169.19
2024-02-24T00:29:11.611Z,167.43
2024-02-24T00:30:11.616Z,168.71
2024-02-24T00:31:11.653Z,170.25
2024-02-24T00:32:11.733Z,168.02
2024-02-24T00:33:11.736Z,169.89
2024-02-24T00:34:11.828Z,169.20
2024-02-24T00:35:11.855Z,169.42
2024-02-24T00:36:11.833Z,168.34
2024-02-24T00:37:11.919Z,169.30
2024-02-24T00:38:11.926Z,170.27
2024-02-24T00:39:11.983Z,169.44
2024-02-24T00:40:12.020Z,169.00
2024-02-24T00:41:12.117Z,169.97
2024-02-24T00:42:12.078Z,171.10
2024-02-24T00:43:12.143Z,170.22
2024-02-24T00:44:12.223Z,169.18
2024-02-24T00:45:12.330Z,170.68
2024-02-24T00:46:12.296Z,170.70
2024-02-24T00:47:12.334Z,169.64
2024-02-24T00:48:12.396Z,171.57
2024-02-24T00:49:12.452Z,168.75
2024-02-24T00:50:12.494Z,170.95
2024-02-24T00:51:12.497Z,168.30
2024-02-24T00:52:12.548Z,170.46
2024-02-24T00:53:12.650Z,170.31
2024-02-24T00:54:12.680Z,168.61
2024-02-24T00:55:12.697Z,170.64
2024-02-24T00:56:12.756Z,170.09
2024-02-24T00:57:12.765Z,170.76
2024-02-24T00:58:12.837Z,170.79
2024-02-24T00:59:12.882Z,170.96
2024-02-24T01:00:12.921Z,173.19
2024-02-24T01:01:12.992Z,171.43
2024-02-24T01:02:13.036Z,170.92
2024-02-24T01:03:13.053Z,170.87
2024-02-24T01:04:13.113Z,170.53
2024-02-24T01:05:13.201Z,172.09
2024-02-24T01:06:13.182Z,170.98
2024-02-24T01:07:13.250Z,170.36
2024-02-24T01:08:13.316Z,170.90
2024-02-24T01:09:13.348Z,172.20
2024-02-24T01:10:13.403Z,170.95
2024-02-24T01:11:13.504Z,171.84
2024-02-24T01:12:13.489Z,171.88
2024-02-24T01:13:13.536Z,172.24
2024-02-24T01:14:13.720Z,171.78
2024-02-24T01:15:13.716Z,173.17
2024-02-24T01:16:13.637Z,171.72
2024-02-24T01:17:13.746Z,171.60
2024-02-24T01:18:13.950Z,171.34
2024-02-24T01:19:13.944Z,171.56
2024-02-24T01:20:13.900Z,171.77
2024-02-24T01:21:13.902Z,172.73
2024-02-24T01:22:13.963Z,172.93
2024-02-24T01:23:14.044Z,170.06
2024-02-24T01:24:14.068Z,172.51
2024-02-24T01:25:14.115Z,172.95
2024-02-24T01:26:14.165Z,172.42
2024-02-24T01:27:14.185Z,173.08
2024-02-24T01:28:14.248Z,173.63
2024-02-24T01:29:14.345Z,171.71
2024-02-24T01:30:14.325Z,173.45
2024-02-24T01:31:14.361Z,173.78
2024-02-24T01:32:14.529Z,172.56
2024-02-24T01:33:14.628Z,173.43
2024-02-24T01:34:14.577Z,173.01
2024-02-24T01:35:14.651Z,172.97
2024-02-24T01:36:14.667Z,172.27
2024-02-24T01:37:14.670Z,172.41
2024-02-24T01:38:14.808Z,172.27
2024-02-24T01:39:14.782Z,173.36
2024-02-24T01:40:14.880Z,172.08
2024-02-24T01:41:14.968Z,171.51
2024-02-24T01:42:14.937Z,172.72
2024-02-24T01:43:14.997Z,172.03
2024-02-24T01:44:15.079Z,172.59
2024-02-24T01:45:15.135Z,174.06
2024-02-24T01:46:15.190Z,174.09
2024-02-24T01:47:15.215Z,172.68
2024-02-24T01:48:15.351Z,172.68
2024-02-24T01:49:15.355Z,174.72
2024-02-24T01:50:15.451Z,173.12
2024-02-24T01:51:15.514Z,172.24
2024-02-24T01:52:15.550Z,174.49
2024-02-24T01:53:15.643Z,171.10
2024-02-24T01:54:15.631Z,172.08
2024-02-24T01:55:15.646Z,174.61
2024-02-24T01:56:15.738Z,171.88
2024-02-24T01:57:15.770Z,173.44
2024-02-24T01:58:15.872Z,172.31
2024-02-24T01:59:15.916Z,173.45
2024-02-24T02:00:15.980Z,173.57
2024-02-24T02:01:16.039Z,173.95
2024-02-24T02:02:16.086Z,173.92
2024-02-24T02:03:16.123Z,173.81
2024-02-24T02:04:16.197Z,174.04
2024-02-24T02:05:16.256Z,171.92
2024-02-24T02:06:16.432Z,174.44
2024-02-24T02:07:16.327Z,173.96
2024-02-24T02:08:16.444Z,173.88
2024-02-24T02:09:16.467Z,173.75
2024-02-24T02:10:16.521Z,173.61
2024-02-24T02:11:16.624Z,174.71
2024-02-24T02:12:16.678Z,173.93
2024-02-24T02:13:16.713Z,174.73
2024-02-24T02:14:16.797Z,174.34
2024-02-24T02:15:16.801Z,172.93
2024-02-24T02:16:16.841Z,175.42
2024-02-24T02:17:16.887Z,173.46
2024-02-24T02:18:17.069Z,174.18
2024-02-24T02:19:17.050Z,175.52
2024-02-24T02:20:17.128Z,175.03
2024-02-24T02:21:17.110Z,174.14
2024-02-24T02:22:17.196Z,174.91
2024-02-24T02:23:17.247Z,174.66
2024-02-24T02:24:17.288Z,174.22
2024-02-24T02:25:17.357Z,173.45
2024-02-24T02:26:17.415Z,175.35
2024-02-24T02:27:17.457Z,175.38
2024-02-24T02:28:17.554Z,174.57
2024-02-24T02:29:17.597Z,174.61
2024-02-24T02:30:17.620Z,174.85
2024-02-24T02:31:17.666Z,175.52
2024-02-24T02:32:17.731Z,174.65
2024-02-24T02:33:17.909Z,175.33
2024-02-24T02:34:18.123Z,174.75
2024-02-24T02:35:17.978Z,175.31
2024-02-24T02:36:17.927Z,174.93
2024-02-24T02:37:18.016Z,176.67
2024-02-24T02:38:18.089Z,177.78
2024-02-24T02:39:18.111Z,176.89
2024-02-24T02:40:18.159Z,175.31
2024-02-24T02:41:18.303Z,176.39
2024-02-24T02:42:18.298Z,176.36
2024-02-24T02:43:18.390Z,174.99
2024-02-24T02:44:18.460Z,175.07
2024-02-24T02:45:18.466Z,175.36
2024-02-24T02:46:18.572Z,176.54
2024-02-24T02:47:23.407Z,176.79
2024-02-24T02:48:19.716Z,176.82
2024-02-24T02:49:18.922Z,176.89
2024-02-24T02:50:18.617Z,176.77
2024-02-24T02:51:18.594Z,175.93
2024-02-24T02:52:18.597Z,177.50
2024-02-24T02:53:18.635Z,176.33
2024-02-24T02:54:18.605Z,175.20
2024-02-24T02:55:18.628Z,177.14
2024-02-24T02:56:18.711Z,176.18
2024-02-24T02:57:18.691Z,176.79
2024-02-24T02:58:18.734Z,175.90
2024-02-24T02:59:18.777Z,174.62
2024-02-24T03:00:18.859Z,176.70
2024-02-24T03:01:19.105Z,176.64
2024-02-24T03:02:19.067Z,177.16
2024-02-24T03:03:19.044Z,178.61
2024-02-24T03:04:19.083Z,176.48
2024-02-24T03:05:19.216Z,177.02
2024-02-24T03:06:19.347Z,177.08
2024-02-24T03:07:19.283Z,177.16
2024-02-24T03:08:19.375Z,175.88
2024-02-24T03:09:19.403Z,176.02
2024-02-24T03:10:19.474Z,176.02
2024-02-24T03:11:19.652Z,175.86
2024-02-24T03:12:19.723Z,178.63
2024-02-24T03:13:19.680Z,177.49
2024-02-24T03:14:19.792Z,174.41
2024-02-24T03:15:19.759Z,175.99
2024-02-24T03:16:20.036Z,176.41
2024-02-24T03:17:19.907Z,176.00
2024-02-24T03:18:20.042Z,176.09
2024-02-24T03:19:20.024Z,176.98
2024-02-24T03:20:20.136Z,178.10
2024-02-24T03:21:20.160Z,176.29
2024-02-24T03:22:20.256Z,177.00
2024-02-24T03:23:20.277Z,178.06
2024-02-24T03:24:20.382Z,178.73
2024-02-24T03:25:20.389Z,177.31
2024-02-24T03:26:20.479Z,176.79
2024-02-24T03:27:20.492Z,175.80
2024-02-24T03:28:20.559Z,175.11
2024-02-24T03:29:20.678Z,177.46
2024-02-24T03:30:20.692Z,177.66
2024-02-24T03:31:20.764Z,175.88
2024-02-24T03:32:20.834Z,177.63
2024-02-24T03:33:20.953Z,177.46
2024-02-24T03:34:20.980Z,176.50
2024-02-24T03:35:21.082Z,179.71
2024-02-24T03:36:21.066Z,178.96
2024-02-24T03:37:21.169Z,177.08
2024-02-24T03:38:21.250Z,178.21
2024-02-24T03:39:21.265Z,176.44
2024-02-24T03:40:21.330Z,178.69
2024-02-24T03:41:21.430Z,178.27
2024-02-24T03:42:21.461Z,178.46
2024-02-24T03:43:21.537Z,178.11
2024-02-24T03:44:21.674Z,176.08
2024-02-24T03:45:21.670Z,177.42
2024-02-24T03:46:21.717Z,178.90
2024-02-24T03:47:21.810Z,175.27
2024-02-24T03:48:21.933Z,176.38
2024-02-24T03:49:21.971Z,176.12
2024-02-24T03:50:22.016Z,178.25
2024-02-24T03:51:22.073Z,178.53
2024-02-24T03:52:22.221Z,177.48
2024-02-24T03:53:22.225Z,176.67
2024-02-24T03:54:22.302Z,177.36
2024-02-24T03:55:22.327Z,177.43
2024-02-24T03:56:22.438Z,178.64
2024-02-24T03:57:22.472Z,177.22
2024-02-24T03:58:22.548Z,178.87
2024-02-24T03:59:22.642Z,178.94
2024-02-24T04:00:22.641Z,178.74
2024-02-24T04:01:22.759Z,178.48
2024-02-24T04:02:22.799Z,177.33
2024-02-24T04:03:22.898Z,177.75
2024-02-24T04:04:22.990Z,176.80
2024-02-24T04:05:23.000Z,177.34
2024-02-24T04:06:23.082Z,178.87
2024-02-24T04:07:23.104Z,177.12
2024-02-24T04:08:23.249Z,178.46
2024-02-24T04:09:23.274Z,176.98
2024-02-24T04:10:23.349Z,177.15
2024-02-24T04:11:23.484Z,177.66
2024-02-24T04:12:23.508Z,179.29
2024-02-24T04:13:23.544Z,177.94
2024-02-24T04:14:23.623Z,177.60
2024-02-24T04:15:23.671Z,177.79
2024-02-24T04:16:23.720Z,178.93
2024-02-24T04:17:23.836Z,176.76
2024-02-24T04:18:24.019Z,179.18
2024-02-24T04:19:24.019Z,178.39
2024-02-24T04:20:24.037Z,178.69
2024-02-24T04:21:24.212Z,179.16
2024-02-24T04:22:24.146Z,179.98
2024-02-24T04:23:24.263Z,177.43
2024-02-24T04:24:24.278Z,180.25
2024-02-24T04:25:24.365Z,179.83
2024-02-24T04:26:31.608Z,50.00
2024-02-24T04:27:31.555Z,50.00
2024-02-24T04:28:31.600Z,50.00
2024-02-24T04:29:31.686Z,50.00
2024-02-24T04:30:31.557Z,50.00
2024-02-24T04:31:38.817Z,50.00
2024-02-24T04:32:38.891Z,50.00
2024-02-24T04:33:38.872Z,50.00
2024-02-24T04:34:38.865Z,50.00
2024-02-24T04:35:38.840Z,50.00
2024-02-24T04:36:38.808Z,50.74
2024-02-24T04:37:38.846Z,50.00
2024-02-24T04:38:38.808Z,52.68
2024-02-24T04:39:38.779Z,50.03
2024-02-24T04:40:38.789Z,51.34
2024-02-24T04:41:38.888Z,52.05
2024-02-24T04:42:38.796Z,51.42
2024-02-24T04:43:38.803Z,51.64
2024-02-24T04:44:38.827Z,52.47
2024-02-24T04:45:38.813Z,52.55
2024-02-24T04:46:38.812Z,50.82
2024-02-24T04:47:38.855Z,51.10
2024-02-24T04:48:38.921Z,52.66
2024-02-24T04:49:38.867Z,51.70
2024-02-24T04:50:38.827Z,51.43
2024-02-24T04:51:38.846Z,52.13
2024-02-24T04:52:38.933Z,52.82
2024-02-24T04:53:38.878Z,52.78
2024-02-24T04:54:38.840Z,51.83
2024-02-24T04:55:38.857Z,53.16
2024-02-24T04:56:38.869Z,50.00
2024-02-24T04:57:38.856Z,54.29
2024-02-24T04:58:38.909Z,53.15
2024-02-24T04:59:38.884Z,51.12
2024-02-24T05:00:38.905Z,53.79
2024-02-24T05:01:38.925Z,51.30
2024-02-24T05:02:38.898Z,52.79
2024-02-24T05:03:39.007Z,52.55
2024-02-24T05:04:38.911Z,52.38
2024-02-24T05:05:38.905Z,53.45
2024-02-24T05:06:38.904Z,53.61
2024-02-24T05:07:38.974Z,51.80
2024-02-24T05:08:39.221Z,53.29
2024-02-24T05:09:39.081Z,54.31
2024-02-24T05:10:39.147Z,51.48
2024-02-24T05:11:39.293Z,52.00
2024-02-24T05:12:39.273Z,53.05
2024-02-24T05:13:39.346Z,52.73
2024-02-24T05:14:39.499Z,51.80
2024-02-24T05:15:39.501Z,53.29
2024-02-24T05:16:39.530Z,54.95
2024-02-24T05:17:39.645Z,53.07
2024-02-24T05:18:40.048Z,51.85
2024-02-24T05:19:39.833Z,53.63
2024-02-24T05:20:39.861Z,52.22
2024-02-24T05:21:39.947Z,52.38
2024-02-24T05:22:40.003Z,54.25
2024-02-24T05:23:40.072Z,53.87
2024-02-24T05:24:40.955Z,52.02
2024-02-24T05:25:40.297Z,52.98
2024-02-24T05:26:40.331Z,52.10
2024-02-24T05:27:40.326Z,54.11
2024-02-24T05:28:40.427Z,54.30
2024-02-24T05:29:40.461Z,51.99
2024-02-24T05:30:40.552Z,53.63
2024-02-24T05:31:40.632Z,51.83
2024-02-24T05:32:40.769Z,52.79
2024-02-24T05:33:40.911Z,52.49
2024-02-24T05:34:40.927Z,54.80
2024-02-24T05:35:40.932Z,52.14
2024-02-24T05:36:40.985Z,53.78
2024-02-24T05:37:41.702Z,53.11
2024-02-24T05:38:41.137Z,51.64
2024-02-24T05:39:41.230Z,51.38
2024-02-24T05:40:41.253Z,53.46
2024-02-24T05:41:41.396Z,54.05
2024-02-24T05:42:41.410Z,52.53
2024-02-24T05:43:41.459Z,53.42
2024-02-24T05:44:41.670Z,51.76
2024-02-24T05:45:41.735Z,53.51
2024-02-24T05:46:41.691Z,52.03
2024-02-24T05:47:41.851Z,54.36
2024-02-24T05:48:41.914Z,56.04
2024-02-24T05:49:41.943Z,53.45
2024-02-24T05:50:42.066Z,54.04
2024-02-24T05:51:42.012Z,52.85
2024-02-24T05:52:42.209Z,51.85
2024-02-24T05:53:42.192Z,52.84
2024-02-24T05:54:42.254Z,53.88
2024-02-24T05:55:42.266Z,55.18
2024-02-24T05:56:42.366Z,51.78
2024-02-24T05:57:42.378Z,55.15
2024-02-24T05:58:42.478Z,53.67
2024-02-24T05:59:42.503Z,54.16
2024-02-24T06:00:42.588Z,55.11
2024-02-24T06:01:42.621Z,51.71
2024-02-24T06:02:42.719Z,54.21
2024-02-24T06:03:42.781Z,54.38
2024-02-24T06:04:42.850Z,55.57
2024-02-24T06:05:43.060Z,55.61
2024-02-24T06:06:42.866Z,55.13
2024-02-24T06:07:43.478Z,53.14
2024-02-24T06:08:42.963Z,54.14
2024-02-24T06:09:43.046Z,56.15
2024-02-24T06:10:43.077Z,54.73
2024-02-24T06:11:43.201Z,53.67
2024-02-24T06:12:43.165Z,53.88
2024-02-24T06:13:43.218Z,53.42
2024-02-24T06:14:43.292Z,55.11
2024-02-24T06:15:43.995Z,53.69
2024-02-24T06:16:43.326Z,54.28
2024-02-24T06:17:43.388Z,53.15
2024-02-24T06:18:43.568Z,53.47
2024-02-24T06:19:43.434Z,54.23
2024-02-24T06:20:43.445Z,53.78
2024-02-24T06:21:43.585Z,55.15
2024-02-24T06:22:43.560Z,52.48
2024-02-24T06:23:43.558Z,53.60
2024-02-24T06:24:43.558Z,53.19
2024-02-24T06:25:43.561Z,54.60
2024-02-24T06:26:43.759Z,54.28
2024-02-24T06:27:43.621Z,53.57
2024-02-24T06:28:45.628Z,54.15
2024-02-24T06:29:43.713Z,53.84
2024-02-24T06:30:43.733Z,56.20
2024-02-24T06:31:44.461Z,54.68
2024-02-24T06:32:43.880Z,54.39
2024-02-24T06:33:43.905Z,55.18
2024-02-24T06:34:43.937Z,53.30
2024-02-24T06:35:43.858Z,55.26
2024-02-24T06:36:43.892Z,54.53
2024-02-24T06:37:43.939Z,52.66
2024-02-24T06:38:44.119Z,53.80
2024-02-24T06:39:43.989Z,51.97
2024-02-24T06:41:44.070Z,55.43
2024-02-24T06:42:44.070Z,55.04
2024-02-24T06:43:44.533Z,55.43
2024-02-24T06:44:44.171Z,54.50
2024-02-24T06:45:44.125Z,55.43
2024-02-24T06:46:44.127Z,55.69
2024-02-24T06:47:44.266Z,54.10
2024-02-24T06:48:44.336Z,54.81
2024-02-24T06:49:44.243Z,53.72
2024-02-24T06:50:44.247Z,54.10
2024-02-24T06:51:44.255Z,54.77
2024-02-24T06:52:44.245Z,55.41
2024-02-24T06:53:44.362Z,54.46
2024-02-24T06:54:44.321Z,52.31
2024-02-24T06:55:44.325Z,53.68
2024-02-24T06:56:44.373Z,52.57
2024-02-24T06:57:45.098Z,54.57
2024-02-24T06:58:44.390Z,55.01
2024-02-24T06:59:44.433Z,54.99
2024-02-24T07:00:44.441Z,54.19
2024-02-24T07:01:44.424Z,54.77
2024-02-24T07:02:44.522Z,54.33
2024-02-24T07:03:44.494Z,53.94
2024-02-24T07:04:44.544Z,52.80
2024-02-24T07:05:44.611Z,55.34
2024-02-24T07:06:44.579Z,56.04
2024-02-24T07:07:44.698Z,54.21
2024-02-24T07:08:44.705Z,55.21
2024-02-24T07:09:44.712Z,53.63
2024-02-24T07:10:44.818Z,55.91
2024-02-24T07:11:44.909Z,56.08
2024-02-24T07:12:44.863Z,53.32
2024-02-24T07:13:45.037Z,54.99
2024-02-24T07:14:45.098Z,54.71
2024-02-24T07:15:45.032Z,53.91
2024-02-24T07:16:45.078Z,53.32
2024-02-24T07:17:45.236Z,54.55
2024-02-24T07:18:45.501Z,53.19
2024-02-24T07:19:45.264Z,54.23
2024-02-24T07:20:45.414Z,54.19
2024-02-24T07:21:45.404Z,54.50
2024-02-24T07:22:45.489Z,53.00
2024-02-24T07:23:45.570Z,54.71
2024-02-24T07:24:45.627Z,54.08
2024-02-24T07:25:45.643Z,54.07
2024-02-24T07:26:49.373Z,54.58
2024-02-24T07:27:46.830Z,53.99
2024-02-24T07:28:45.715Z,55.02
2024-02-24T07:29:45.852Z,54.77
2024-02-24T07:30:45.844Z,54.77
2024-02-24T07:31:45.772Z,55.77
2024-02-24T07:32:47.660Z,56.38
2024-02-24T07:33:46.122Z,54.84
2024-02-24T07:34:45.977Z,55.88
2024-02-24T07:35:45.897Z,54.60
2024-02-24T07:36:45.937Z,54.42
2024-02-24T07:37:46.538Z,55.25
2024-02-24T07:38:46.137Z,54.38
2024-02-24T07:39:46.116Z,55.81
2024-02-24T07:40:46.992Z,55.12
2024-02-24T07:41:46.453Z,56.06
2024-02-24T07:42:46.319Z,55.71
2024-02-24T07:43:46.461Z,54.94
2024-02-24T07:44:46.457Z,57.02
2024-02-24T07:45:46.531Z,56.42
2024-02-24T07:46:46.572Z,54.73
2024-02-24T07:47:46.656Z,54.59
2024-02-24T07:48:46.724Z,54.25
2024-02-24T07:49:46.889Z,54.64
2024-02-24T07:50:46.928Z,53.83
2024-02-24T07:51:46.880Z,53.27
2024-02-24T07:52:47.903Z,55.18
2024-02-24T07:53:47.118Z,56.00
2024-02-24T07:54:47.172Z,54.54
2024-02-24T07:55:47.489Z,55.27
2024-02-24T07:56:47.249Z,53.89
2024-02-24T07:57:47.366Z,53.72
2024-02-24T07:58:47.302Z,54.27
2024-02-24T07:59:47.456Z,54.57
2024-02-24T08:00:51.873Z,54.70
2024-02-24T08:01:48.458Z,54.74
2024-02-24T08:02:47.528Z,54.95
2024-02-24T08:03:47.507Z,54.09
2024-02-24T08:04:47.459Z,54.55
2024-02-24T08:05:47.537Z,54.81
2024-02-24T08:06:47.475Z,54.93
2024-02-24T08:07:47.457Z,56.09
2024-02-24T08:08:47.476Z,53.09
2024-02-24T08:09:47.413Z,55.10
2024-02-24T08:10:47.502Z,55.36
2024-02-24T08:11:47.537Z,54.98
2024-02-24T08:12:47.629Z,52.00
2024-02-24T08:13:47.681Z,56.86
2024-02-24T08:14:47.687Z,57.60
2024-02-24T08:15:47.657Z,55.64
2024-02-24T08:16:47.724Z,55.26
2024-02-24T08:17:47.849Z,52.92
2024-02-24T08:18:48.627Z,53.32
2024-02-24T08:19:47.855Z,53.71
2024-02-24T08:20:47.888Z,54.51
2024-02-24T08:21:47.950Z,55.88
2024-02-24T08:22:47.909Z,54.76
2024-02-24T08:23:48.067Z,51.96
2024-02-24T08:24:48.070Z,53.65
2024-02-24T08:25:48.128Z,54.84
2024-02-24T08:26:48.147Z,55.60
2024-02-24T08:27:48.162Z,52.37
2024-02-24T08:28:48.193Z,54.87
2024-02-24T08:29:48.273Z,52.57
2024-02-24T08:30:49.036Z,53.06
2024-02-24T08:31:48.348Z,54.34
2024-02-24T08:32:49.816Z,53.32
2024-02-24T08:33:48.407Z,55.42
2024-02-24T08:34:48.435Z,55.50
2024-02-24T08:35:48.493Z,55.04
2024-02-24T08:36:48.656Z,53.62
2024-02-24T08:37:48.498Z,57.29
2024-02-24T08:38:48.578Z,55.81
2024-02-24T08:39:48.562Z,55.60
2024-02-24T08:40:48.726Z,53.53
2024-02-24T08:41:48.672Z,54.67
2024-02-24T08:42:48.706Z,54.59
2024-02-24T08:43:48.738Z,54.27
2024-02-24T08:44:48.754Z,55.50
2024-02-24T08:45:48.800Z,53.36
2024-02-24T08:46:48.799Z,53.11
2024-02-24T08:47:48.820Z,52.51
2024-02-24T08:48:49.506Z,52.79
2024-02-24T08:49:48.799Z,56.03
2024-02-24T08:50:48.976Z,56.22
2024-02-24T08:51:48.965Z,53.84
2024-02-24T08:53:48.991Z,54.60
2024-02-24T08:54:48.956Z,56.75
2024-02-24T08:55:49.000Z,55.26
2024-02-24T08:56:49.191Z,55.68
2024-02-24T08:57:49.113Z,54.57
2024-02-24T08:58:49.052Z,53.92
2024-02-24T08:59:49.068Z,55.61
2024-02-24T09:00:49.171Z,54.67
2024-02-24T09:01:49.100Z,56.69
2024-02-24T09:02:49.283Z,53.92
2024-02-24T09:03:49.315Z,54.79
2024-02-24T09:04:49.231Z,54.65
2024-02-24T09:05:49.311Z,54.37
2024-02-24T09:06:49.377Z,53.87
2024-02-24T09:07:49.378Z,56.12
2024-02-24T09:08:49.265Z,52.41
2024-02-24T09:09:50.043Z,54.29
2024-02-24T09:10:49.392Z,54.43
2024-02-24T09:11:49.364Z,54.38
2024-02-24T09:12:49.286Z,56.97
2024-02-24T09:13:49.353Z,53.37
2024-02-24T09:14:49.401Z,55.56
2024-02-24T09:15:49.347Z,54.30
2024-02-24T09:16:49.361Z,53.73
2024-02-24T09:17:49.408Z,53.72
2024-02-24T09:18:49.598Z,54.19
2024-02-24T09:19:49.537Z,54.05
2024-02-24T09:20:49.538Z,54.79
2024-02-24T09:21:49.473Z,54.49
2024-02-24T09:22:49.398Z,53.08
2024-02-24T09:23:49.427Z,53.39
2024-02-24T09:24:49.480Z,54.55
2024-02-24T09:25:49.467Z,53.82
2024-02-24T09:26:49.497Z,56.18
2024-02-24T09:27:49.523Z,53.90
2024-02-24T09:28:49.457Z,56.24
2024-02-24T09:29:49.519Z,55.43
2024-02-24T09:30:49.513Z,53.90
2024-02-24T09:31:49.513Z,53.88
2024-02-24T09:32:49.667Z,54.91
2024-02-24T09:33:49.562Z,53.56
2024-02-24T09:34:49.659Z,55.00
2024-02-24T09:35:49.549Z,55.74
2024-02-24T09:36:49.544Z,53.83
2024-02-24T09:37:49.555Z,55.88
2024-02-24T09:38:49.765Z,54.73
2024-02-24T09:39:49.532Z,55.06
2024-02-24T09:40:49.541Z,54.59
2024-02-24T09:41:49.699Z,54.80
2024-02-24T09:42:49.586Z,53.54
2024-02-24T09:43:49.536Z,55.93
2024-02-24T09:44:49.618Z,55.04
2024-02-24T09:45:49.681Z,54.70
2024-02-24T09:46:49.629Z,54.28
2024-02-24T09:47:49.588Z,52.87
2024-02-24T09:48:49.674Z,52.92
2024-02-24T09:49:49.729Z,54.93
2024-02-24T09:50:49.629Z,54.09
2024-02-24T09:51:49.682Z,54.48
2024-02-24T09:52:49.609Z,56.27
2024-02-24T09:53:49.697Z,53.95
2024-02-24T09:54:49.616Z,55.14
2024-02-24T09:55:49.717Z,55.16
2024-02-24T09:56:49.670Z,54.36
2024-02-24T09:57:49.688Z,55.23
2024-02-24T09:58:49.696Z,54.82
2024-02-24T09:59:49.844Z,55.51
2024-02-24T10:00:49.764Z,53.42
2024-02-24T10:01:49.776Z,56.10
2024-02-24T10:02:49.806Z,55.74
2024-02-24T10:03:50.341Z,53.89
2024-02-24T10:04:49.875Z,53.21
2024-02-24T10:05:50.013Z,54.51
2024-02-24T10:06:49.850Z,56.65
2024-02-24T10:07:49.855Z,54.17
2024-02-24T10:08:50.070Z,54.09
2024-02-24T10:09:50.046Z,54.69
2024-02-24T10:10:50.109Z,52.58
2024-02-24T10:11:50.094Z,55.44
2024-02-24T10:12:50.149Z,53.70
2024-02-24T10:13:50.234Z,53.11
2024-02-24T10:14:50.377Z,53.56
2024-02-24T10:15:50.372Z,53.47
2024-02-24T10:16:50.385Z,52.55
2024-02-24T10:17:50.647Z,54.11
2024-02-24T10:18:50.644Z,52.53
2024-02-24T10:19:50.731Z,51.07
2024-02-24T10:20:50.773Z,53.04
2024-02-24T10:21:50.773Z,52.76
2024-02-24T10:22:50.914Z,53.38
2024-02-24T10:23:51.003Z,53.00
2024-02-24T10:24:51.040Z,51.89
2024-02-24T10:25:51.065Z,52.00
2024-02-24T10:26:51.121Z,53.01
2024-02-24T10:27:51.587Z,52.55
2024-02-24T10:28:51.301Z,51.67
2024-02-24T10:29:51.310Z,50.90
2024-02-24T10:30:51.349Z,51.28
2024-02-24T10:31:51.426Z,51.05
2024-02-24T10:32:53.288Z,51.29
2024-02-24T10:33:51.735Z,50.49
2024-02-24T10:34:51.678Z,50.93
2024-02-24T10:35:52.581Z,51.98
2024-02-24T10:36:51.756Z,51.93
2024-02-24T10:38:09.332Z,52.15
2024-02-24T10:39:51.819Z,52.19
2024-02-24T10:40:51.825Z,52.46
2024-02-24T10:41:51.870Z,52.63
2024-02-24T10:42:51.858Z,51.32
2024-02-24T10:43:52.765Z,50.00
2024-02-24T10:44:51.966Z,50.18
2024-02-24T10:45:51.798Z,50.44
2024-02-24T10:46:51.857Z,50.48
2024-02-24T10:47:52.824Z,51.45
2024-02-24T10:48:51.895Z,52.22
2024-02-24T10:49:51.859Z,51.20
2024-02-24T10:50:51.909Z,51.43
2024-02-24T10:51:51.839Z,51.71
2024-02-24T10:52:51.948Z,50.54
2024-02-24T10:53:51.868Z,50.29
2024-02-24T10:54:51.817Z,50.89
2024-02-24T10:55:51.914Z,51.59
2024-02-24T10:56:52.000Z,50.45
2024-02-24T10:57:52.008Z,51.08
2024-02-24T10:58:52.624Z,52.41
2024-02-24T10:59:51.879Z,52.80
2024-02-24T11:00:51.939Z,52.89
2024-02-24T11:01:52.070Z,53.28
2024-02-24T11:02:52.059Z,53.00
2024-02-24T11:03:52.047Z,52.36
2024-02-24T11:04:52.077Z,51.02
2024-02-24T11:05:52.308Z,51.29
2024-02-24T11:06:52.261Z,51.60
2024-02-24T11:07:52.208Z,55.23
2024-02-24T11:08:52.394Z,53.78
2024-02-24T11:09:52.386Z,53.68
2024-02-24T11:10:52.402Z,53.53
2024-02-24T11:11:52.445Z,52.06
2024-02-24T11:12:52.435Z,53.69
2024-02-24T11:14:00.386Z,53.81
2024-02-24T11:14:53.626Z,53.87
2024-02-24T11:15:52.505Z,54.23
2024-02-24T11:16:52.548Z,53.86
2024-02-24T11:17:53.404Z,54.34
2024-02-24T11:18:53.780Z,53.85
2024-02-24T11:19:52.684Z,50.22
2024-02-24T11:20:52.863Z,54.59
2024-02-24T11:21:52.776Z,54.79
2024-02-24T11:22:52.833Z,54.56
2024-02-24T11:23:52.953Z,55.26
2024-02-24T11:24:52.886Z,53.29
2024-02-24T11:25:52.951Z,55.81
2024-02-24T11:26:53.038Z,54.68
2024-02-24T11:27:53.007Z,52.77
2024-02-24T11:28:53.081Z,54.15
2024-02-24T11:29:53.172Z,57.14
2024-02-24T11:30:53.152Z,55.96
2024-02-24T11:31:53.220Z,55.48
2024-02-24T11:32:53.465Z,55.96
2024-02-24T11:33:53.500Z,54.60
2024-02-24T11:34:53.474Z,56.66
2024-02-24T11:35:53.421Z,56.50
2024-02-24T11:36:53.414Z,57.33
2024-02-24T11:37:53.494Z,55.75
2024-02-24T11:38:53.619Z,58.50
2024-02-24T11:39:53.569Z,57.77
2024-02-24T11:40:53.622Z,58.62
2024-02-24T11:41:53.757Z,56.93
2024-02-24T11:42:53.710Z,50.79
2024-02-24T11:43:53.754Z,52.39
2024-02-24T11:44:53.832Z,58.52
2024-02-24T11:45:53.907Z,55.44
2024-02-24T11:46:54.110Z,58.17
2024-02-24T11:47:54.064Z,56.77
2024-02-24T11:48:54.290Z,55.45
2024-02-24T11:49:54.107Z,58.89
2024-02-24T11:50:54.162Z,55.85
2024-02-24T11:51:54.153Z,57.57
2024-02-24T11:52:54.241Z,55.69
2024-02-24T11:53:54.401Z,59.86
2024-02-24T11:54:54.397Z,59.22
2024-02-24T11:55:54.348Z,51.47
2024-02-24T11:56:54.457Z,56.60
2024-02-24T11:57:54.446Z,57.62
2024-02-24T11:58:54.486Z,57.76
2024-02-24T11:59:54.569Z,57.31
2024-02-24T12:00:54.599Z,58.75
2024-02-24T12:01:54.632Z,57.60
2024-02-24T12:02:54.801Z,52.34
2024-02-24T12:03:54.787Z,56.22
2024-02-24T12:04:54.836Z,60.16
2024-02-24T12:05:54.829Z,59.91
2024-02-24T12:06:54.965Z,50.91
2024-02-24T12:07:54.900Z,56.03
2024-02-24T12:08:55.104Z,60.41
2024-02-24T12:09:54.960Z,55.24
2024-02-24T12:10:55.047Z,57.42
2024-02-24T12:11:55.125Z,56.65
2024-02-24T12:12:55.081Z,55.50
2024-02-24T12:13:55.120Z,54.80
2024-02-24T12:14:55.311Z,59.57
2024-02-24T12:15:55.191Z,55.74
2024-02-24T12:16:55.241Z,54.73
2024-02-24T12:17:55.381Z,59.67
2024-02-24T12:18:55.445Z,55.64
2024-02-24T12:19:55.419Z,52.77
2024-02-24T12:20:55.491Z,56.00
2024-02-24T12:21:55.439Z,54.80
2024-02-24T12:22:55.499Z,55.04
2024-02-24T12:23:55.522Z,52.79
2024-02-24T12:24:55.584Z,54.38
2024-02-24T12:25:55.626Z,58.36
2024-02-24T12:26:55.866Z,55.90
2024-02-24T12:27:55.759Z,57.66
2024-02-24T12:28:55.716Z,59.63
2024-02-24T12:29:55.764Z,52.70
2024-02-24T12:30:55.733Z,56.43
2024-02-24T12:31:55.784Z,57.81
2024-02-24T12:32:55.913Z,56.88
2024-02-24T12:33:56.720Z,58.88
2024-02-24T12:34:55.875Z,51.96
2024-02-24T12:35:55.947Z,55.12
2024-02-24T12:36:55.887Z,55.87
2024-02-24T12:37:55.995Z,53.49
2024-02-24T12:38:56.035Z,54.47
2024-02-24T12:40:23.575Z,50.00
2024-02-24T12:41:23.634Z,50.00
2024-02-24T12:42:23.619Z,50.00
2024-02-24T12:43:23.596Z,50.00
2024-02-24T12:44:23.712Z,50.00
2024-02-24T12:45:23.615Z,57.37
2024-02-24T12:46:23.838Z,52.12
2024-02-24T12:47:23.600Z,52.11
2024-02-24T12:48:23.771Z,54.79